sensor_id;sensor_type;location;lat;lon;timestamp;temperature;humidity
25825;DHT22;13658;44.534;18.694;2023-07-31T00:01:49;20.10;99.90
25825;DHT22;13658;44.534;18.694;2023-07-31T00:04:15;20.10;99.90
25825;DHT22;13658;44.534;18.694;2023-07-31T00:06:41;20.10;99.90
25825;DHT22;13658;44.534;18.694;2023-07-31T00:09:07;20.00;99.90
25825;DHT22;13658;44.534;18.694;2023-07-31T00:11:33;20.00;99.90
25825;DHT22;13658;44.534;18.694;2023-07-31T00:13:59;19.90;99.90
25825;DHT22;13658;44.534;18.694;2023-07-31T00:16:25;19.90;99.90
25825;DHT22;13658;44.534;18.694;2023-07-31T00:18:51;19.90;99.90
25825;DHT22;13658;44.534;18.694;2023-07-31T00:21:17;19.90;99.90
25825;DHT22;13658;44.534;18.694;2023-07-31T00:23:42;19.80;99.90
25825;DHT22;13658;44.534;18.694;2023-07-31T00:26:08;19.80;99.90
25825;DHT22;13658;44.534;18.694;2023-07-31T00:28:34;19.80;99.90
25825;DHT22;13658;44.534;18.694;2023-07-31T00:31:00;19.70;99.90
25825;DHT22;13658;44.534;18.694;2023-07-31T00:33:27;19.70;99.90
25825;DHT22;13658;44.534;18.694;2023-07-31T00:35:53;19.70;99.90
25825;DHT22;13658;44.534;18.694;2023-07-31T00:38:19;19.70;99.90
25825;DHT22;13658;44.534;18.694;2023-07-31T00:40:45;19.70;99.90
25825;DHT22;13658;44.534;18.694;2023-07-31T00:43:11;19.70;99.90
25825;DHT22;13658;44.534;18.694;2023-07-31T00:45:37;19.60;99.90
25825;DHT22;13658;44.534;18.694;2023-07-31T00:48:03;19.60;99.90
25825;DHT22;13658;44.534;18.694;2023-07-31T00:50:31;19.60;99.90
25825;DHT22;13658;44.534;18.694;2023-07-31T00:52:58;19.60;99.90
25825;DHT22;13658;44.534;18.694;2023-07-31T00:55:24;19.50;99.90
25825;DHT22;13658;44.534;18.694;2023-07-31T00:57:51;19.50;99.90
25825;DHT22;13658;44.534;18.694;2023-07-31T01:00:18;19.40;99.90
25825;DHT22;13658;44.534;18.694;2023-07-31T01:02:44;19.40;99.90
25825;DHT22;13658;44.534;18.694;2023-07-31T01:05:10;19.30;99.90
25825;DHT22;13658;44.534;18.694;2023-07-31T01:08:05;19.20;99.90
25825;DHT22;13658;44.534;18.694;2023-07-31T01:11:38;19.30;99.90
25825;DHT22;13658;44.534;18.694;2023-07-31T01:13:31;19.30;99.90
25825;DHT22;13658;44.534;18.694;2023-07-31T01:15:57;19.30;99.90
25825;DHT22;13658;44.534;18.694;2023-07-31T01:18:23;19.20;99.90
25825;DHT22;13658;44.534;18.694;2023-07-31T01:21:14;19.20;99.90
25825;DHT22;13658;44.534;18.694;2023-07-31T01:24:17;19.20;99.90
25825;DHT22;13658;44.534;18.694;2023-07-31T01:26:49;19.20;99.90
25825;DHT22;13658;44.534;18.694;2023-07-31T01:29:23;19.10;99.90
25825;DHT22;13658;44.534;18.694;2023-07-31T01:31:50;19.10;99.90
25825;DHT22;13658;44.534;18.694;2023-07-31T01:34:19;19.10;99.90
25825;DHT22;13658;44.534;18.694;2023-07-31T01:36:46;19.10;99.90
25825;DHT22;13658;44.534;18.694;2023-07-31T01:39:12;19.10;99.90
25825;DHT22;13658;44.534;18.694;2023-07-31T01:41:38;19.10;99.90
25825;DHT22;13658;44.534;18.694;2023-07-31T01:44:04;19.00;99.90
25825;DHT22;13658;44.534;18.694;2023-07-31T01:46:30;19.00;99.90
25825;DHT22;13658;44.534;18.694;2023-07-31T01:48:56;19.00;99.90
25825;DHT22;13658;44.534;18.694;2023-07-31T01:51:23;19.00;99.90
25825;DHT22;13658;44.534;18.694;2023-07-31T01:53:49;19.00;99.90
25825;DHT22;13658;44.534;18.694;2023-07-31T01:56:15;18.90;99.90
25825;DHT22;13658;44.534;18.694;2023-07-31T01:58:41;18.90;99.90
25825;DHT22;13658;44.534;18.694;2023-07-31T02:01:07;18.80;99.90
25825;DHT22;13658;44.534;18.694;2023-07-31T02:03:33;18.80;99.90
25825;DHT22;13658;44.534;18.694;2023-07-31T02:06:00;18.80;99.90
25825;DHT22;13658;44.534;18.694;2023-07-31T02:08:26;18.80;99.90
25825;DHT22;13658;44.534;18.694;2023-07-31T02:10:53;18.80;99.90
25825;DHT22;13658;44.534;18.694;2023-07-31T02:13:19;18.80;99.90
25825;DHT22;13658;44.534;18.694;2023-07-31T02:15:45;18.80;99.90
25825;DHT22;13658;44.534;18.694;2023-07-31T02:18:12;18.90;99.90
25825;DHT22;13658;44.534;18.694;2023-07-31T02:20:38;18.90;99.90
25825;DHT22;13658;44.534;18.694;2023-07-31T02:23:04;18.90;99.90
25825;DHT22;13658;44.534;18.694;2023-07-31T02:25:29;19.00;99.90
25825;DHT22;13658;44.534;18.694;2023-07-31T02:27:56;19.00;99.90
25825;DHT22;13658;44.534;18.694;2023-07-31T02:30:22;19.00;99.90
25825;DHT22;13658;44.534;18.694;2023-07-31T02:32:47;19.00;99.90
25825;DHT22;13658;44.534;18.694;2023-07-31T02:35:13;19.00;99.90
25825;DHT22;13658;44.534;18.694;2023-07-31T02:37:42;18.90;99.90
25825;DHT22;13658;44.534;18.694;2023-07-31T02:40:08;18.80;99.90
25825;DHT22;13658;44.534;18.694;2023-07-31T02:42:34;18.80;99.90
25825;DHT22;13658;44.534;18.694;2023-07-31T02:45:00;18.80;99.90
25825;DHT22;13658;44.534;18.694;2023-07-31T02:47:26;18.80;99.90
25825;DHT22;13658;44.534;18.694;2023-07-31T02:49:52;18.70;99.90
25825;DHT22;13658;44.534;18.694;2023-07-31T02:52:18;18.70;99.90
25825;DHT22;13658;44.534;18.694;2023-07-31T02:54:44;18.70;99.90
25825;DHT22;13658;44.534;18.694;2023-07-31T02:57:10;18.80;99.90
25825;DHT22;13658;44.534;18.694;2023-07-31T02:59:35;18.70;99.90
25825;DHT22;13658;44.534;18.694;2023-07-31T03:02:01;18.80;99.90
25825;DHT22;13658;44.534;18.694;2023-07-31T03:04:27;18.80;99.90
25825;DHT22;13658;44.534;18.694;2023-07-31T03:06:53;18.80;99.90
25825;DHT22;13658;44.534;18.694;2023-07-31T03:09:19;18.80;99.90
25825;DHT22;13658;44.534;18.694;2023-07-31T03:11:45;18.80;99.90
25825;DHT22;13658;44.534;18.694;2023-07-31T03:14:11;18.80;99.90
25825;DHT22;13658;44.534;18.694;2023-07-31T03:16:37;18.80;99.90
25825;DHT22;13658;44.534;18.694;2023-07-31T03:19:02;18.80;99.90
25825;DHT22;13658;44.534;18.694;2023-07-31T03:21:28;18.80;99.90
25825;DHT22;13658;44.534;18.694;2023-07-31T03:23:54;18.80;99.90
25825;DHT22;13658;44.534;18.694;2023-07-31T03:26:20;18.80;99.90
25825;DHT22;13658;44.534;18.694;2023-07-31T03:28:46;18.70;99.90
25825;DHT22;13658;44.534;18.694;2023-07-31T03:31:12;18.70;99.90
25825;DHT22;13658;44.534;18.694;2023-07-31T03:33:38;18.70;99.90
25825;DHT22;13658;44.534;18.694;2023-07-31T03:36:04;18.70;99.90
25825;DHT22;13658;44.534;18.694;2023-07-31T03:38:31;18.80;99.90
25825;DHT22;13658;44.534;18.694;2023-07-31T03:40:57;18.80;99.90
25825;DHT22;13658;44.534;18.694;2023-07-31T03:43:24;18.80;99.90
25825;DHT22;13658;44.534;18.694;2023-07-31T03:45:50;18.90;99.90
25825;DHT22;13658;44.534;18.694;2023-07-31T03:48:16;18.90;99.90
25825;DHT22;13658;44.534;18.694;2023-07-31T03:50:42;18.90;99.90
25825;DHT22;13658;44.534;18.694;2023-07-31T03:53:08;18.70;99.90
25825;DHT22;13658;44.534;18.694;2023-07-31T03:55:34;18.70;99.90
25825;DHT22;13658;44.534;18.694;2023-07-31T03:58:00;18.70;99.90
25825;DHT22;13658;44.534;18.694;2023-07-31T04:00:27;18.70;99.90
25825;DHT22;13658;44.534;18.694;2023-07-31T04:02:53;18.70;99.90
25825;DHT22;13658;44.534;18.694;2023-07-31T04:05:19;18.70;99.90
25825;DHT22;13658;44.534;18.694;2023-07-31T04:07:44;18.70;99.90
25825;DHT22;13658;44.534;18.694;2023-07-31T04:10:10;18.70;99.90
25825;DHT22;13658;44.534;18.694;2023-07-31T04:12:36;18.70;99.90
25825;DHT22;13658;44.534;18.694;2023-07-31T04:15:02;18.80;99.90
25825;DHT22;13658;44.534;18.694;2023-07-31T04:17:28;18.80;99.90
25825;DHT22;13658;44.534;18.694;2023-07-31T04:19:54;18.80;99.90
25825;DHT22;13658;44.534;18.694;2023-07-31T04:22:20;18.80;99.90
25825;DHT22;13658;44.534;18.694;2023-07-31T04:24:46;18.80;99.90
25825;DHT22;13658;44.534;18.694;2023-07-31T04:27:12;18.80;99.90
25825;DHT22;13658;44.534;18.694;2023-07-31T04:29:38;18.80;99.90
25825;DHT22;13658;44.534;18.694;2023-07-31T04:32:05;18.90;99.90
25825;DHT22;13658;44.534;18.694;2023-07-31T04:34:31;18.90;99.90
25825;DHT22;13658;44.534;18.694;2023-07-31T04:36:57;18.90;99.90
25825;DHT22;13658;44.534;18.694;2023-07-31T04:39:23;19.00;99.90
25825;DHT22;13658;44.534;18.694;2023-07-31T04:41:49;19.00;99.90
25825;DHT22;13658;44.534;18.694;2023-07-31T04:44:15;19.10;99.90
25825;DHT22;13658;44.534;18.694;2023-07-31T04:46:41;19.10;99.90
25825;DHT22;13658;44.534;18.694;2023-07-31T04:49:07;19.10;99.90
25825;DHT22;13658;44.534;18.694;2023-07-31T04:51:33;19.30;99.90
25825;DHT22;13658;44.534;18.694;2023-07-31T04:53:59;19.40;99.90
25825;DHT22;13658;44.534;18.694;2023-07-31T04:56:25;19.50;99.90
25825;DHT22;13658;44.534;18.694;2023-07-31T04:58:51;19.60;99.90
25825;DHT22;13658;44.534;18.694;2023-07-31T05:01:17;19.70;99.90
25825;DHT22;13658;44.534;18.694;2023-07-31T05:03:42;19.90;99.90
25825;DHT22;13658;44.534;18.694;2023-07-31T05:06:08;20.00;99.90
25825;DHT22;13658;44.534;18.694;2023-07-31T05:08:34;20.10;99.90
25825;DHT22;13658;44.534;18.694;2023-07-31T05:11:00;20.20;99.90
25825;DHT22;13658;44.534;18.694;2023-07-31T05:13:26;20.20;99.90
25825;DHT22;13658;44.534;18.694;2023-07-31T05:15:52;20.30;99.90
25825;DHT22;13658;44.534;18.694;2023-07-31T05:18:18;20.40;99.90
25825;DHT22;13658;44.534;18.694;2023-07-31T05:20:44;20.50;99.90
25825;DHT22;13658;44.534;18.694;2023-07-31T05:23:10;20.40;99.90
25825;DHT22;13658;44.534;18.694;2023-07-31T05:25:36;20.50;99.90
25825;DHT22;13658;44.534;18.694;2023-07-31T05:28:02;20.60;99.90
25825;DHT22;13658;44.534;18.694;2023-07-31T05:30:30;20.80;99.90
25825;DHT22;13658;44.534;18.694;2023-07-31T05:32:56;20.80;99.90
25825;DHT22;13658;44.534;18.694;2023-07-31T05:35:22;20.90;99.90
25825;DHT22;13658;44.534;18.694;2023-07-31T05:37:48;21.00;99.90
25825;DHT22;13658;44.534;18.694;2023-07-31T05:40:14;21.10;99.90
25825;DHT22;13658;44.534;18.694;2023-07-31T05:42:40;21.20;99.90
25825;DHT22;13658;44.534;18.694;2023-07-31T05:45:07;21.40;99.90
25825;DHT22;13658;44.534;18.694;2023-07-31T05:47:33;21.60;99.90
25825;DHT22;13658;44.534;18.694;2023-07-31T05:50:00;21.70;99.90
25825;DHT22;13658;44.534;18.694;2023-07-31T05:52:26;21.70;99.90
25825;DHT22;13658;44.534;18.694;2023-07-31T05:54:52;21.80;99.90
25825;DHT22;13658;44.534;18.694;2023-07-31T05:57:18;22.00;99.90
25825;DHT22;13658;44.534;18.694;2023-07-31T05:59:43;22.30;99.90
25825;DHT22;13658;44.534;18.694;2023-07-31T06:02:09;22.40;99.90
25825;DHT22;13658;44.534;18.694;2023-07-31T06:04:35;22.40;99.90
25825;DHT22;13658;44.534;18.694;2023-07-31T06:07:01;22.60;99.90
25825;DHT22;13658;44.534;18.694;2023-07-31T06:09:28;22.80;99.90
25825;DHT22;13658;44.534;18.694;2023-07-31T06:11:54;23.00;99.90
25825;DHT22;13658;44.534;18.694;2023-07-31T06:14:20;23.20;99.90
25825;DHT22;13658;44.534;18.694;2023-07-31T06:16:46;23.30;99.90
25825;DHT22;13658;44.534;18.694;2023-07-31T06:19:12;23.80;99.90
25825;DHT22;13658;44.534;18.694;2023-07-31T06:21:38;24.20;99.90
25825;DHT22;13658;44.534;18.694;2023-07-31T06:24:05;24.70;99.90
25825;DHT22;13658;44.534;18.694;2023-07-31T06:26:31;25.00;99.90
25825;DHT22;13658;44.534;18.694;2023-07-31T06:28:57;25.10;99.90
25825;DHT22;13658;44.534;18.694;2023-07-31T06:31:23;24.80;99.90
25825;DHT22;13658;44.534;18.694;2023-07-31T06:33:50;24.70;99.90
25825;DHT22;13658;44.534;18.694;2023-07-31T06:36:16;24.80;99.90
25825;DHT22;13658;44.534;18.694;2023-07-31T06:38:42;25.20;99.90
25825;DHT22;13658;44.534;18.694;2023-07-31T06:41:08;25.50;99.90
25825;DHT22;13658;44.534;18.694;2023-07-31T06:43:36;26.30;99.90
25825;DHT22;13658;44.534;18.694;2023-07-31T06:46:06;27.00;99.90
25825;DHT22;13658;44.534;18.694;2023-07-31T06:48:33;27.10;99.90
25825;DHT22;13658;44.534;18.694;2023-07-31T06:51:00;27.40;99.90
25825;DHT22;13658;44.534;18.694;2023-07-31T06:53:26;27.80;99.90
25825;DHT22;13658;44.534;18.694;2023-07-31T06:55:52;27.90;99.90
25825;DHT22;13658;44.534;18.694;2023-07-31T06:58:20;27.70;99.90
25825;DHT22;13658;44.534;18.694;2023-07-31T07:00:46;27.40;99.90
25825;DHT22;13658;44.534;18.694;2023-07-31T07:03:12;27.40;99.90
25825;DHT22;13658;44.534;18.694;2023-07-31T07:05:40;27.30;99.90
25825;DHT22;13658;44.534;18.694;2023-07-31T07:08:06;27.30;99.90
25825;DHT22;13658;44.534;18.694;2023-07-31T07:10:32;27.20;99.90
25825;DHT22;13658;44.534;18.694;2023-07-31T07:12:59;27.00;99.90
25825;DHT22;13658;44.534;18.694;2023-07-31T07:15:25;27.00;99.90
25825;DHT22;13658;44.534;18.694;2023-07-31T07:17:51;26.90;99.90
25825;DHT22;13658;44.534;18.694;2023-07-31T07:20:17;26.50;99.90
25825;DHT22;13658;44.534;18.694;2023-07-31T07:22:44;26.70;99.90
25825;DHT22;13658;44.534;18.694;2023-07-31T07:25:10;26.90;99.90
25825;DHT22;13658;44.534;18.694;2023-07-31T07:27:37;27.00;99.90
25825;DHT22;13658;44.534;18.694;2023-07-31T07:30:03;27.20;99.90
25825;DHT22;13658;44.534;18.694;2023-07-31T07:32:29;27.60;99.90
25825;DHT22;13658;44.534;18.694;2023-07-31T07:34:55;27.60;99.90
25825;DHT22;13658;44.534;18.694;2023-07-31T07:37:22;28.40;99.90
25825;DHT22;13658;44.534;18.694;2023-07-31T07:39:48;28.40;99.90
25825;DHT22;13658;44.534;18.694;2023-07-31T07:42:14;28.20;99.90
25825;DHT22;13658;44.534;18.694;2023-07-31T07:44:40;28.00;99.90
25825;DHT22;13658;44.534;18.694;2023-07-31T07:47:06;27.60;99.90
25825;DHT22;13658;44.534;18.694;2023-07-31T07:49:33;27.60;99.90
25825;DHT22;13658;44.534;18.694;2023-07-31T07:52:00;27.40;99.90
25825;DHT22;13658;44.534;18.694;2023-07-31T07:54:26;27.30;99.90
25825;DHT22;13658;44.534;18.694;2023-07-31T07:56:53;27.10;99.90
25825;DHT22;13658;44.534;18.694;2023-07-31T07:59:19;27.40;99.90
25825;DHT22;13658;44.534;18.694;2023-07-31T08:01:44;28.50;99.90
25825;DHT22;13658;44.534;18.694;2023-07-31T08:04:10;29.50;99.90
25825;DHT22;13658;44.534;18.694;2023-07-31T08:06:36;29.70;99.90
25825;DHT22;13658;44.534;18.694;2023-07-31T08:09:03;29.70;99.90
25825;DHT22;13658;44.534;18.694;2023-07-31T08:11:35;29.60;99.90
25825;DHT22;13658;44.534;18.694;2023-07-31T08:14:01;30.00;99.90
25825;DHT22;13658;44.534;18.694;2023-07-31T08:16:27;30.50;99.90
25825;DHT22;13658;44.534;18.694;2023-07-31T08:18:53;30.40;99.90
25825;DHT22;13658;44.534;18.694;2023-07-31T08:21:19;30.80;99.90
25825;DHT22;13658;44.534;18.694;2023-07-31T08:23:45;32.00;99.90
25825;DHT22;13658;44.534;18.694;2023-07-31T08:26:18;31.90;99.90
25825;DHT22;13658;44.534;18.694;2023-07-31T08:28:44;31.40;99.90
25825;DHT22;13658;44.534;18.694;2023-07-31T08:31:10;30.60;99.90
25825;DHT22;13658;44.534;18.694;2023-07-31T08:33:37;30.50;99.90
25825;DHT22;13658;44.534;18.694;2023-07-31T08:36:04;30.10;99.90
25825;DHT22;13658;44.534;18.694;2023-07-31T08:38:30;29.90;99.90
25825;DHT22;13658;44.534;18.694;2023-07-31T08:40:57;29.90;99.90
25825;DHT22;13658;44.534;18.694;2023-07-31T08:43:27;29.70;99.90
25825;DHT22;13658;44.534;18.694;2023-07-31T08:45:53;29.50;99.90
25825;DHT22;13658;44.534;18.694;2023-07-31T08:48:22;28.90;99.90
25825;DHT22;13658;44.534;18.694;2023-07-31T08:50:51;28.90;99.90
25825;DHT22;13658;44.534;18.694;2023-07-31T08:53:17;28.80;99.90
25825;DHT22;13658;44.534;18.694;2023-07-31T08:55:44;28.70;99.90
25825;DHT22;13658;44.534;18.694;2023-07-31T08:58:12;28.60;99.90
25825;DHT22;13658;44.534;18.694;2023-07-31T09:00:40;29.20;99.90
25825;DHT22;13658;44.534;18.694;2023-07-31T09:03:14;29.70;99.90
25825;DHT22;13658;44.534;18.694;2023-07-31T09:05:43;31.20;99.90
25825;DHT22;13658;44.534;18.694;2023-07-31T09:08:15;31.90;99.90
25825;DHT22;13658;44.534;18.694;2023-07-31T09:10:44;32.50;99.90
25825;DHT22;13658;44.534;18.694;2023-07-31T09:13:14;32.30;99.90
25825;DHT22;13658;44.534;18.694;2023-07-31T09:15:42;31.60;99.90
25825;DHT22;13658;44.534;18.694;2023-07-31T09:18:08;31.40;99.90
25825;DHT22;13658;44.534;18.694;2023-07-31T09:20:35;32.10;99.90
25825;DHT22;13658;44.534;18.694;2023-07-31T09:23:13;32.30;99.90
25825;DHT22;13658;44.534;18.694;2023-07-31T09:25:40;33.30;99.90
25825;DHT22;13658;44.534;18.694;2023-07-31T09:28:10;33.80;99.90
25825;DHT22;13658;44.534;18.694;2023-07-31T09:30:50;34.10;99.90
25825;DHT22;13658;44.534;18.694;2023-07-31T09:33:18;34.10;99.90
25825;DHT22;13658;44.534;18.694;2023-07-31T09:35:44;34.30;99.90
25825;DHT22;13658;44.534;18.694;2023-07-31T09:38:12;35.00;99.90
25825;DHT22;13658;44.534;18.694;2023-07-31T09:40:42;35.40;99.90
25825;DHT22;13658;44.534;18.694;2023-07-31T09:43:13;34.70;99.90
25825;DHT22;13658;44.534;18.694;2023-07-31T09:45:41;34.10;99.90
25825;DHT22;13658;44.534;18.694;2023-07-31T09:48:08;33.80;99.90
25825;DHT22;13658;44.534;18.694;2023-07-31T09:50:38;33.70;99.90
25825;DHT22;13658;44.534;18.694;2023-07-31T09:53:05;33.80;99.90
25825;DHT22;13658;44.534;18.694;2023-07-31T09:55:33;34.10;99.90
25825;DHT22;13658;44.534;18.694;2023-07-31T09:57:59;33.50;99.90
25825;DHT22;13658;44.534;18.694;2023-07-31T10:00:30;33.60;99.90
25825;DHT22;13658;44.534;18.694;2023-07-31T10:02:59;34.20;99.90
25825;DHT22;13658;44.534;18.694;2023-07-31T10:05:39;35.20;99.90
25825;DHT22;13658;44.534;18.694;2023-07-31T10:08:07;35.40;99.90
25825;DHT22;13658;44.534;18.694;2023-07-31T10:10:36;35.20;99.90
25825;DHT22;13658;44.534;18.694;2023-07-31T10:13:02;35.00;99.90
25825;DHT22;13658;44.534;18.694;2023-07-31T10:15:29;34.90;99.90
25825;DHT22;13658;44.534;18.694;2023-07-31T10:17:56;35.40;99.90
25825;DHT22;13658;44.534;18.694;2023-07-31T10:20:23;35.70;99.90
25825;DHT22;13658;44.534;18.694;2023-07-31T10:22:51;35.50;99.90
25825;DHT22;13658;44.534;18.694;2023-07-31T10:25:18;35.50;99.90
25825;DHT22;13658;44.534;18.694;2023-07-31T10:27:47;35.80;99.90
25825;DHT22;13658;44.534;18.694;2023-07-31T10:30:17;36.30;99.90
25825;DHT22;13658;44.534;18.694;2023-07-31T10:32:45;36.60;99.90
25825;DHT22;13658;44.534;18.694;2023-07-31T10:35:11;36.20;99.90
25825;DHT22;13658;44.534;18.694;2023-07-31T10:37:40;35.40;99.90
25825;DHT22;13658;44.534;18.694;2023-07-31T10:42:38;35.80;99.90
25825;DHT22;13658;44.534;18.694;2023-07-31T10:45:08;36.70;99.90
25825;DHT22;13658;44.534;18.694;2023-07-31T10:47:42;37.00;99.90
25825;DHT22;13658;44.534;18.694;2023-07-31T10:50:22;36.90;99.90
25825;DHT22;13658;44.534;18.694;2023-07-31T10:52:53;36.30;99.90
25825;DHT22;13658;44.534;18.694;2023-07-31T10:55:26;36.70;99.90
25825;DHT22;13658;44.534;18.694;2023-07-31T10:57:53;35.90;99.90
25825;DHT22;13658;44.534;18.694;2023-07-31T11:00:27;35.30;99.90
25825;DHT22;13658;44.534;18.694;2023-07-31T11:03:05;33.60;99.90
25825;DHT22;13658;44.534;18.694;2023-07-31T11:05:49;32.40;99.90
25825;DHT22;13658;44.534;18.694;2023-07-31T11:08:20;31.90;99.90
25825;DHT22;13658;44.534;18.694;2023-07-31T11:10:50;31.40;99.90
25825;DHT22;13658;44.534;18.694;2023-07-31T11:13:17;31.00;99.90
25825;DHT22;13658;44.534;18.694;2023-07-31T11:15:43;31.00;99.90
25825;DHT22;13658;44.534;18.694;2023-07-31T11:18:09;30.50;99.90
25825;DHT22;13658;44.534;18.694;2023-07-31T11:20:37;30.20;99.90
25825;DHT22;13658;44.534;18.694;2023-07-31T11:23:07;30.00;99.90
25825;DHT22;13658;44.534;18.694;2023-07-31T11:25:33;29.90;99.90
25825;DHT22;13658;44.534;18.694;2023-07-31T11:28:04;29.90;99.90
25825;DHT22;13658;44.534;18.694;2023-07-31T11:30:31;29.80;99.90
25825;DHT22;13658;44.534;18.694;2023-07-31T11:32:57;29.40;99.90
25825;DHT22;13658;44.534;18.694;2023-07-31T11:35:23;29.40;99.90
25825;DHT22;13658;44.534;18.694;2023-07-31T11:37:49;29.40;99.90
25825;DHT22;13658;44.534;18.694;2023-07-31T11:40:16;29.30;99.90
25825;DHT22;13658;44.534;18.694;2023-07-31T11:42:42;29.20;99.90
25825;DHT22;13658;44.534;18.694;2023-07-31T11:45:09;29.30;99.90
25825;DHT22;13658;44.534;18.694;2023-07-31T11:47:36;29.30;99.90
25825;DHT22;13658;44.534;18.694;2023-07-31T11:50:11;29.30;99.90
25825;DHT22;13658;44.534;18.694;2023-07-31T11:52:44;29.40;99.90
25825;DHT22;13658;44.534;18.694;2023-07-31T11:55:12;29.30;99.90
25825;DHT22;13658;44.534;18.694;2023-07-31T11:57:40;29.30;99.90
25825;DHT22;13658;44.534;18.694;2023-07-31T12:00:10;29.00;99.90
25825;DHT22;13658;44.534;18.694;2023-07-31T12:02:39;28.80;99.90
25825;DHT22;13658;44.534;18.694;2023-07-31T12:05:12;28.60;99.90
25825;DHT22;13658;44.534;18.694;2023-07-31T12:07:52;28.60;99.90
25825;DHT22;13658;44.534;18.694;2023-07-31T12:10:29;28.60;99.90
25825;DHT22;13658;44.534;18.694;2023-07-31T12:13:04;28.80;99.90
25825;DHT22;13658;44.534;18.694;2023-07-31T12:15:40;28.80;99.90
25825;DHT22;13658;44.534;18.694;2023-07-31T12:18:09;28.70;99.90
25825;DHT22;13658;44.534;18.694;2023-07-31T12:20:35;28.80;99.90
25825;DHT22;13658;44.534;18.694;2023-07-31T12:23:05;28.50;99.90
25825;DHT22;13658;44.534;18.694;2023-07-31T12:25:33;28.40;99.90
25825;DHT22;13658;44.534;18.694;2023-07-31T12:28:08;28.20;99.90
25825;DHT22;13658;44.534;18.694;2023-07-31T12:30:39;28.20;99.90
25825;DHT22;13658;44.534;18.694;2023-07-31T12:35:47;28.20;99.90
25825;DHT22;13658;44.534;18.694;2023-07-31T12:38:13;28.30;99.90
25825;DHT22;13658;44.534;18.694;2023-07-31T12:40:40;28.30;99.90
25825;DHT22;13658;44.534;18.694;2023-07-31T12:43:08;28.40;99.90
25825;DHT22;13658;44.534;18.694;2023-07-31T12:45:34;28.40;99.90
25825;DHT22;13658;44.534;18.694;2023-07-31T12:48:01;28.30;99.90
25825;DHT22;13658;44.534;18.694;2023-07-31T12:50:27;28.20;99.90
25825;DHT22;13658;44.534;18.694;2023-07-31T12:52:54;28.20;99.90
25825;DHT22;13658;44.534;18.694;2023-07-31T12:55:21;28.30;99.90
25825;DHT22;13658;44.534;18.694;2023-07-31T12:57:47;28.30;99.90
25825;DHT22;13658;44.534;18.694;2023-07-31T13:00:13;28.20;99.90
25825;DHT22;13658;44.534;18.694;2023-07-31T13:02:40;28.20;99.90
25825;DHT22;13658;44.534;18.694;2023-07-31T13:05:06;28.20;99.90
25825;DHT22;13658;44.534;18.694;2023-07-31T13:07:32;28.00;99.90
25825;DHT22;13658;44.534;18.694;2023-07-31T13:09:58;28.00;99.90
25825;DHT22;13658;44.534;18.694;2023-07-31T13:12:24;28.00;99.90
25825;DHT22;13658;44.534;18.694;2023-07-31T13:14:50;27.90;99.90
25825;DHT22;13658;44.534;18.694;2023-07-31T13:17:17;27.90;99.90
25825;DHT22;13658;44.534;18.694;2023-07-31T13:19:43;27.90;99.90
25825;DHT22;13658;44.534;18.694;2023-07-31T13:22:09;28.00;99.90
25825;DHT22;13658;44.534;18.694;2023-07-31T13:24:36;28.00;99.90
25825;DHT22;13658;44.534;18.694;2023-07-31T13:27:02;27.90;99.90
25825;DHT22;13658;44.534;18.694;2023-07-31T13:29:28;27.80;99.90
25825;DHT22;13658;44.534;18.694;2023-07-31T13:31:55;27.80;99.90
25825;DHT22;13658;44.534;18.694;2023-07-31T13:34:21;27.90;99.90
25825;DHT22;13658;44.534;18.694;2023-07-31T13:36:47;28.00;99.90
25825;DHT22;13658;44.534;18.694;2023-07-31T13:39:13;28.10;99.90
25825;DHT22;13658;44.534;18.694;2023-07-31T13:41:39;28.20;99.90
25825;DHT22;13658;44.534;18.694;2023-07-31T13:44:05;28.20;99.90
25825;DHT22;13658;44.534;18.694;2023-07-31T13:46:31;28.40;99.90
25825;DHT22;13658;44.534;18.694;2023-07-31T13:48:58;28.40;99.90
25825;DHT22;13658;44.534;18.694;2023-07-31T13:51:25;28.30;99.90
25825;DHT22;13658;44.534;18.694;2023-07-31T13:53:53;28.30;99.90
25825;DHT22;13658;44.534;18.694;2023-07-31T13:56:19;28.40;99.90
25825;DHT22;13658;44.534;18.694;2023-07-31T13:58:45;28.40;99.90
25825;DHT22;13658;44.534;18.694;2023-07-31T14:01:11;28.50;99.90
25825;DHT22;13658;44.534;18.694;2023-07-31T14:03:36;28.50;99.90
25825;DHT22;13658;44.534;18.694;2023-07-31T14:06:02;28.40;99.90
25825;DHT22;13658;44.534;18.694;2023-07-31T14:08:28;28.30;99.90
25825;DHT22;13658;44.534;18.694;2023-07-31T14:10:55;28.20;99.90
25825;DHT22;13658;44.534;18.694;2023-07-31T14:13:21;28.10;99.90
25825;DHT22;13658;44.534;18.694;2023-07-31T14:15:47;28.10;99.90
25825;DHT22;13658;44.534;18.694;2023-07-31T14:18:13;28.10;99.90
25825;DHT22;13658;44.534;18.694;2023-07-31T14:20:39;28.00;99.90
25825;DHT22;13658;44.534;18.694;2023-07-31T14:23:05;27.90;99.90
25825;DHT22;13658;44.534;18.694;2023-07-31T14:25:31;27.90;99.90
25825;DHT22;13658;44.534;18.694;2023-07-31T14:27:57;27.70;99.90
25825;DHT22;13658;44.534;18.694;2023-07-31T14:30:23;27.60;99.90
25825;DHT22;13658;44.534;18.694;2023-07-31T14:32:49;27.60;99.90
25825;DHT22;13658;44.534;18.694;2023-07-31T14:35:15;27.50;99.90
25825;DHT22;13658;44.534;18.694;2023-07-31T14:37:43;27.50;99.90
25825;DHT22;13658;44.534;18.694;2023-07-31T14:40:10;27.60;99.90
25825;DHT22;13658;44.534;18.694;2023-07-31T14:42:37;27.70;99.90
25825;DHT22;13658;44.534;18.694;2023-07-31T14:45:05;27.70;99.90
25825;DHT22;13658;44.534;18.694;2023-07-31T14:47:31;27.70;99.90
25825;DHT22;13658;44.534;18.694;2023-07-31T14:49:58;27.80;99.90
25825;DHT22;13658;44.534;18.694;2023-07-31T14:52:24;27.80;99.90
25825;DHT22;13658;44.534;18.694;2023-07-31T14:54:50;27.70;99.90
25825;DHT22;13658;44.534;18.694;2023-07-31T14:57:16;27.70;99.90
25825;DHT22;13658;44.534;18.694;2023-07-31T14:59:42;27.80;99.90
25825;DHT22;13658;44.534;18.694;2023-07-31T15:02:09;27.80;99.90
25825;DHT22;13658;44.534;18.694;2023-07-31T15:04:36;27.80;99.90
25825;DHT22;13658;44.534;18.694;2023-07-31T15:07:02;27.90;99.90
25825;DHT22;13658;44.534;18.694;2023-07-31T15:09:28;28.00;99.90
25825;DHT22;13658;44.534;18.694;2023-07-31T15:11:55;28.00;99.90
25825;DHT22;13658;44.534;18.694;2023-07-31T15:14:21;27.90;99.90
25825;DHT22;13658;44.534;18.694;2023-07-31T15:16:47;27.80;99.90
25825;DHT22;13658;44.534;18.694;2023-07-31T15:19:12;27.70;99.90
25825;DHT22;13658;44.534;18.694;2023-07-31T15:21:39;27.70;99.90